sensor_id;sensor_type;location;lat;lon;timestamp;temperature;humidity
816;DHT22;25928;51.062;13.752;2023-05-23T00:02:23;21.30;99.90
816;DHT22;25928;51.062;13.752;2023-05-23T00:04:48;21.30;99.90
816;DHT22;25928;51.062;13.752;2023-05-23T00:07:15;21.20;99.90
816;DHT22;25928;51.062;13.752;2023-05-23T00:09:40;21.20;99.90
816;DHT22;25928;51.062;13.752;2023-05-23T00:12:06;21.10;99.90
816;DHT22;25928;51.062;13.752;2023-05-23T00:14:32;21.20;99.90
816;DHT22;25928;51.062;13.752;2023-05-23T00:16:58;21.10;99.90
816;DHT22;25928;51.062;13.752;2023-05-23T00:19:25;21.10;99.90
816;DHT22;25928;51.062;13.752;2023-05-23T00:21:51;21.10;99.90
816;DHT22;25928;51.062;13.752;2023-05-23T00:24:18;21.00;99.90
816;DHT22;25928;51.062;13.752;2023-05-23T00:26:45;20.90;99.90
816;DHT22;25928;51.062;13.752;2023-05-23T00:29:11;20.90;99.90
816;DHT22;25928;51.062;13.752;2023-05-23T00:31:43;21.00;99.90
816;DHT22;25928;51.062;13.752;2023-05-23T00:34:12;21.00;99.90
816;DHT22;25928;51.062;13.752;2023-05-23T00:36:38;21.10;99.90
816;DHT22;25928;51.062;13.752;2023-05-23T00:39:06;20.90;99.90
816;DHT22;25928;51.062;13.752;2023-05-23T00:41:33;20.90;99.90
816;DHT22;25928;51.062;13.752;2023-05-23T00:43:58;21.00;99.90
816;DHT22;25928;51.062;13.752;2023-05-23T00:46:25;20.70;99.90
816;DHT22;25928;51.062;13.752;2023-05-23T00:48:52;20.60;99.90
816;DHT22;25928;51.062;13.752;2023-05-23T00:51:19;20.50;1.00
816;DHT22;25928;51.062;13.752;2023-05-23T00:53:44;20.40;1.00
816;DHT22;25928;51.062;13.752;2023-05-23T00:56:10;20.20;1.00
816;DHT22;25928;51.062;13.752;2023-05-23T00:58:37;20.10;1.00
816;DHT22;25928;51.062;13.752;2023-05-23T01:01:02;20.10;1.00
816;DHT22;25928;51.062;13.752;2023-05-23T01:03:28;19.90;1.00
816;DHT22;25928;51.062;13.752;2023-05-23T01:05:55;19.60;1.00
816;DHT22;25928;51.062;13.752;2023-05-23T01:08:21;19.40;1.00
816;DHT22;25928;51.062;13.752;2023-05-23T01:10:47;19.30;1.00
816;DHT22;25928;51.062;13.752;2023-05-23T01:13:33;19.10;1.00
816;DHT22;25928;51.062;13.752;2023-05-23T01:16:20;18.90;1.00
816;DHT22;25928;51.062;13.752;2023-05-23T01:18:58;18.80;1.00
816;DHT22;25928;51.062;13.752;2023-05-23T01:21:29;18.90;1.00
816;DHT22;25928;51.062;13.752;2023-05-23T01:29:12;19.20;1.00
816;DHT22;25928;51.062;13.752;2023-05-23T01:31:42;19.20;1.00
816;DHT22;25928;51.062;13.752;2023-05-23T01:34:11;19.20;1.00
816;DHT22;25928;51.062;13.752;2023-05-23T01:36:41;19.10;1.00
816;DHT22;25928;51.062;13.752;2023-05-23T01:39:07;19.20;1.00
816;DHT22;25928;51.062;13.752;2023-05-23T01:41:33;19.10;1.00
816;DHT22;25928;51.062;13.752;2023-05-23T01:43:59;19.10;1.00
816;DHT22;25928;51.062;13.752;2023-05-23T01:46:26;19.20;1.00
816;DHT22;25928;51.062;13.752;2023-05-23T01:48:53;19.20;1.00
816;DHT22;25928;51.062;13.752;2023-05-23T01:51:21;19.20;1.00
816;DHT22;25928;51.062;13.752;2023-05-23T01:53:48;19.30;1.00
816;DHT22;25928;51.062;13.752;2023-05-23T01:56:14;19.30;1.00
816;DHT22;25928;51.062;13.752;2023-05-23T01:58:40;19.10;1.00
816;DHT22;25928;51.062;13.752;2023-05-23T02:01:05;19.10;1.00
816;DHT22;25928;51.062;13.752;2023-05-23T02:03:31;19.00;1.00
816;DHT22;25928;51.062;13.752;2023-05-23T02:05:57;19.00;1.00
816;DHT22;25928;51.062;13.752;2023-05-23T02:08:22;18.90;1.00
816;DHT22;25928;51.062;13.752;2023-05-23T02:10:48;18.90;1.00
816;DHT22;25928;51.062;13.752;2023-05-23T02:13:13;18.90;1.00
816;DHT22;25928;51.062;13.752;2023-05-23T02:15:39;18.80;1.00
816;DHT22;25928;51.062;13.752;2023-05-23T02:18:05;18.80;1.00
816;DHT22;25928;51.062;13.752;2023-05-23T02:20:31;18.60;1.00
816;DHT22;25928;51.062;13.752;2023-05-23T02:22:56;18.60;1.00
816;DHT22;25928;51.062;13.752;2023-05-23T02:25:22;18.70;1.00
816;DHT22;25928;51.062;13.752;2023-05-23T02:27:47;18.70;1.00
816;DHT22;25928;51.062;13.752;2023-05-23T02:30:13;18.60;1.00
816;DHT22;25928;51.062;13.752;2023-05-23T02:32:39;18.70;1.00
816;DHT22;25928;51.062;13.752;2023-05-23T02:35:04;18.60;1.00
816;DHT22;25928;51.062;13.752;2023-05-23T02:37:30;18.70;1.00
816;DHT22;25928;51.062;13.752;2023-05-23T02:39:56;18.60;1.00
816;DHT22;25928;51.062;13.752;2023-05-23T02:42:21;18.60;1.00
816;DHT22;25928;51.062;13.752;2023-05-23T02:44:47;18.60;1.00
816;DHT22;25928;51.062;13.752;2023-05-23T02:47:13;18.60;1.00
816;DHT22;25928;51.062;13.752;2023-05-23T02:49:38;18.50;1.00
816;DHT22;25928;51.062;13.752;2023-05-23T02:52:04;18.50;1.00
816;DHT22;25928;51.062;13.752;2023-05-23T02:54:30;18.60;1.00
816;DHT22;25928;51.062;13.752;2023-05-23T02:56:55;18.60;1.00
816;DHT22;25928;51.062;13.752;2023-05-23T02:59:21;18.60;1.00
816;DHT22;25928;51.062;13.752;2023-05-23T03:01:47;18.70;1.00
816;DHT22;25928;51.062;13.752;2023-05-23T03:04:13;18.60;1.00
816;DHT22;25928;51.062;13.752;2023-05-23T03:06:39;18.70;1.00
816;DHT22;25928;51.062;13.752;2023-05-23T03:09:07;18.70;1.00
816;DHT22;25928;51.062;13.752;2023-05-23T03:11:33;18.60;1.00
816;DHT22;25928;51.062;13.752;2023-05-23T03:13:58;18.60;1.00
816;DHT22;25928;51.062;13.752;2023-05-23T03:16:24;18.60;1.00
816;DHT22;25928;51.062;13.752;2023-05-23T03:18:50;18.60;1.00
816;DHT22;25928;51.062;13.752;2023-05-23T03:21:15;18.70;1.00
816;DHT22;25928;51.062;13.752;2023-05-23T03:23:41;18.60;1.00
816;DHT22;25928;51.062;13.752;2023-05-23T03:26:06;18.60;1.00
816;DHT22;25928;51.062;13.752;2023-05-23T03:28:32;18.60;1.00
816;DHT22;25928;51.062;13.752;2023-05-23T03:30:58;18.60;1.00
816;DHT22;25928;51.062;13.752;2023-05-23T03:33:24;18.60;1.00
816;DHT22;25928;51.062;13.752;2023-05-23T03:35:49;18.60;1.00
816;DHT22;25928;51.062;13.752;2023-05-23T03:38:15;18.50;1.00
816;DHT22;25928;51.062;13.752;2023-05-23T03:40:41;18.50;1.00
816;DHT22;25928;51.062;13.752;2023-05-23T03:43:07;18.60;1.00
816;DHT22;25928;51.062;13.752;2023-05-23T03:45:33;18.60;1.00
816;DHT22;25928;51.062;13.752;2023-05-23T03:47:59;18.50;1.00
816;DHT22;25928;51.062;13.752;2023-05-23T03:50:25;18.60;1.00
816;DHT22;25928;51.062;13.752;2023-05-23T03:52:52;18.70;1.00
816;DHT22;25928;51.062;13.752;2023-05-23T03:55:19;18.80;1.00
816;DHT22;25928;51.062;13.752;2023-05-23T03:57:50;18.80;1.00
816;DHT22;25928;51.062;13.752;2023-05-23T04:00:16;18.90;1.00
816;DHT22;25928;51.062;13.752;2023-05-23T04:02:43;18.90;1.00
816;DHT22;25928;51.062;13.752;2023-05-23T04:05:10;18.90;1.00
816;DHT22;25928;51.062;13.752;2023-05-23T04:07:36;19.00;1.00
816;DHT22;25928;51.062;13.752;2023-05-23T04:10:03;19.00;1.00
816;DHT22;25928;51.062;13.752;2023-05-23T04:12:28;19.10;1.00
816;DHT22;25928;51.062;13.752;2023-05-23T04:14:57;19.10;1.00
816;DHT22;25928;51.062;13.752;2023-05-23T04:17:23;19.10;1.00
816;DHT22;25928;51.062;13.752;2023-05-23T04:19:53;19.10;1.00
816;DHT22;25928;51.062;13.752;2023-05-23T04:22:18;19.00;1.00
816;DHT22;25928;51.062;13.752;2023-05-23T04:24:44;19.10;1.00
816;DHT22;25928;51.062;13.752;2023-05-23T04:27:09;19.20;1.00
816;DHT22;25928;51.062;13.752;2023-05-23T04:29:35;19.20;1.00
816;DHT22;25928;51.062;13.752;2023-05-23T04:32:01;19.20;1.00
816;DHT22;25928;51.062;13.752;2023-05-23T04:34:27;19.30;1.00
816;DHT22;25928;51.062;13.752;2023-05-23T04:36:52;19.30;1.00
816;DHT22;25928;51.062;13.752;2023-05-23T04:39:19;19.20;1.00
816;DHT22;25928;51.062;13.752;2023-05-23T04:41:44;19.20;1.00
816;DHT22;25928;51.062;13.752;2023-05-23T04:44:11;19.20;1.00
816;DHT22;25928;51.062;13.752;2023-05-23T04:46:36;19.40;1.00
816;DHT22;25928;51.062;13.752;2023-05-23T04:49:09;19.50;1.00
816;DHT22;25928;51.062;13.752;2023-05-23T04:51:35;19.50;1.00
816;DHT22;25928;51.062;13.752;2023-05-23T04:54:01;19.70;1.00
816;DHT22;25928;51.062;13.752;2023-05-23T04:56:26;19.60;1.00
816;DHT22;25928;51.062;13.752;2023-05-23T04:58:53;19.60;1.00
816;DHT22;25928;51.062;13.752;2023-05-23T05:01:18;19.80;1.00
816;DHT22;25928;51.062;13.752;2023-05-23T05:03:44;19.80;1.00
816;DHT22;25928;51.062;13.752;2023-05-23T05:06:10;19.80;1.00
816;DHT22;25928;51.062;13.752;2023-05-23T05:08:35;19.80;1.00
816;DHT22;25928;51.062;13.752;2023-05-23T05:11:01;19.80;1.00
816;DHT22;25928;51.062;13.752;2023-05-23T05:13:27;19.80;1.00
816;DHT22;25928;51.062;13.752;2023-05-23T05:15:52;19.90;1.00
816;DHT22;25928;51.062;13.752;2023-05-23T05:18:18;20.00;1.00
816;DHT22;25928;51.062;13.752;2023-05-23T05:20:43;20.10;1.00
816;DHT22;25928;51.062;13.752;2023-05-23T05:23:09;20.20;1.00
816;DHT22;25928;51.062;13.752;2023-05-23T05:25:36;20.40;1.00
816;DHT22;25928;51.062;13.752;2023-05-23T05:28:02;20.50;1.00
816;DHT22;25928;51.062;13.752;2023-05-23T05:30:32;20.40;1.00
816;DHT22;25928;51.062;13.752;2023-05-23T05:33:04;20.40;1.00
816;DHT22;25928;51.062;13.752;2023-05-23T05:35:30;20.40;1.00
816;DHT22;25928;51.062;13.752;2023-05-23T05:37:57;20.30;1.00
816;DHT22;25928;51.062;13.752;2023-05-23T05:40:22;20.40;1.00
816;DHT22;25928;51.062;13.752;2023-05-23T05:42:48;20.30;1.00
816;DHT22;25928;51.062;13.752;2023-05-23T05:45:14;20.30;1.00
816;DHT22;25928;51.062;13.752;2023-05-23T05:47:39;20.40;1.00
816;DHT22;25928;51.062;13.752;2023-05-23T05:50:06;20.40;1.00
816;DHT22;25928;51.062;13.752;2023-05-23T05:52:34;20.40;1.00
816;DHT22;25928;51.062;13.752;2023-05-23T05:55:04;20.40;1.00
816;DHT22;25928;51.062;13.752;2023-05-23T05:57:31;20.50;1.00
816;DHT22;25928;51.062;13.752;2023-05-23T05:59:56;20.60;1.00
816;DHT22;25928;51.062;13.752;2023-05-23T06:02:22;20.70;1.00
816;DHT22;25928;51.062;13.752;2023-05-23T06:04:47;20.80;1.00
816;DHT22;25928;51.062;13.752;2023-05-23T06:07:13;20.90;1.00
816;DHT22;25928;51.062;13.752;2023-05-23T06:09:39;21.00;1.00
816;DHT22;25928;51.062;13.752;2023-05-23T06:12:04;21.10;1.00
816;DHT22;25928;51.062;13.752;2023-05-23T06:14:30;21.10;1.00
816;DHT22;25928;51.062;13.752;2023-05-23T06:16:56;21.30;1.00
816;DHT22;25928;51.062;13.752;2023-05-23T06:19:21;21.30;1.00
816;DHT22;25928;51.062;13.752;2023-05-23T06:21:47;21.30;1.00
816;DHT22;25928;51.062;13.752;2023-05-23T06:24:12;21.10;1.00
816;DHT22;25928;51.062;13.752;2023-05-23T06:26:38;20.90;1.00
816;DHT22;25928;51.062;13.752;2023-05-23T06:29:03;20.50;1.00
816;DHT22;25928;51.062;13.752;2023-05-23T06:31:29;20.30;1.00
816;DHT22;25928;51.062;13.752;2023-05-23T06:33:55;20.10;1.00
816;DHT22;25928;51.062;13.752;2023-05-23T06:36:20;20.00;1.00
816;DHT22;25928;51.062;13.752;2023-05-23T06:38:49;20.00;1.00
816;DHT22;25928;51.062;13.752;2023-05-23T06:41:14;19.90;1.00
816;DHT22;25928;51.062;13.752;2023-05-23T06:43:40;19.90;1.00
816;DHT22;25928;51.062;13.752;2023-05-23T06:46:06;20.10;1.00
816;DHT22;25928;51.062;13.752;2023-05-23T06:48:31;20.10;1.00
816;DHT22;25928;51.062;13.752;2023-05-23T06:50:57;20.20;1.00
816;DHT22;25928;51.062;13.752;2023-05-23T06:53:22;20.50;1.00
816;DHT22;25928;51.062;13.752;2023-05-23T06:55:48;20.50;1.00
816;DHT22;25928;51.062;13.752;2023-05-23T06:58:13;20.30;1.00
816;DHT22;25928;51.062;13.752;2023-05-23T07:00:39;20.10;1.00
816;DHT22;25928;51.062;13.752;2023-05-23T07:03:06;20.10;1.00
816;DHT22;25928;51.062;13.752;2023-05-23T07:05:31;20.20;1.00
816;DHT22;25928;51.062;13.752;2023-05-23T07:07:58;20.40;1.00
816;DHT22;25928;51.062;13.752;2023-05-23T07:10:24;20.60;1.00
816;DHT22;25928;51.062;13.752;2023-05-23T07:12:50;20.60;1.00
816;DHT22;25928;51.062;13.752;2023-05-23T07:15:16;20.60;1.00
816;DHT22;25928;51.062;13.752;2023-05-23T07:17:42;20.70;1.00
816;DHT22;25928;51.062;13.752;2023-05-23T07:20:09;20.90;1.00
816;DHT22;25928;51.062;13.752;2023-05-23T07:22:35;20.90;1.00
816;DHT22;25928;51.062;13.752;2023-05-23T07:25:01;20.70;1.00
816;DHT22;25928;51.062;13.752;2023-05-23T07:27:27;20.80;1.00
816;DHT22;25928;51.062;13.752;2023-05-23T07:29:53;20.60;1.00
816;DHT22;25928;51.062;13.752;2023-05-23T07:32:18;20.80;1.00
816;DHT22;25928;51.062;13.752;2023-05-23T07:34:44;20.90;1.00
816;DHT22;25928;51.062;13.752;2023-05-23T07:37:09;21.20;1.00
816;DHT22;25928;51.062;13.752;2023-05-23T07:39:35;21.50;1.00
816;DHT22;25928;51.062;13.752;2023-05-23T07:42:01;21.80;1.00
816;DHT22;25928;51.062;13.752;2023-05-23T07:44:27;21.90;1.00
816;DHT22;25928;51.062;13.752;2023-05-23T07:46:53;21.60;1.00
816;DHT22;25928;51.062;13.752;2023-05-23T07:49:19;21.50;1.00
816;DHT22;25928;51.062;13.752;2023-05-23T07:51:45;21.40;1.00
816;DHT22;25928;51.062;13.752;2023-05-23T07:54:11;21.50;1.00
816;DHT22;25928;51.062;13.752;2023-05-23T07:56:36;21.80;1.00
816;DHT22;25928;51.062;13.752;2023-05-23T07:59:03;22.00;1.00
816;DHT22;25928;51.062;13.752;2023-05-23T08:01:29;21.90;1.00
816;DHT22;25928;51.062;13.752;2023-05-23T08:03:54;22.10;1.00
816;DHT22;25928;51.062;13.752;2023-05-23T08:06:20;22.30;1.00
816;DHT22;25928;51.062;13.752;2023-05-23T08:08:45;22.30;1.00
816;DHT22;25928;51.062;13.752;2023-05-23T08:11:11;22.50;1.00
816;DHT22;25928;51.062;13.752;2023-05-23T08:13:37;22.60;1.00
816;DHT22;25928;51.062;13.752;2023-05-23T08:16:02;22.50;1.00
816;DHT22;25928;51.062;13.752;2023-05-23T08:18:28;22.50;1.00
816;DHT22;25928;51.062;13.752;2023-05-23T08:20:55;22.30;1.00
816;DHT22;25928;51.062;13.752;2023-05-23T08:23:20;22.40;1.00
816;DHT22;25928;51.062;13.752;2023-05-23T08:25:46;22.50;1.00
816;DHT22;25928;51.062;13.752;2023-05-23T08:28:12;22.40;1.00
816;DHT22;25928;51.062;13.752;2023-05-23T08:30:38;22.40;1.00
816;DHT22;25928;51.062;13.752;2023-05-23T08:33:03;22.30;1.00
816;DHT22;25928;51.062;13.752;2023-05-23T08:35:29;22.50;1.00
816;DHT22;25928;51.062;13.752;2023-05-23T08:37:59;22.70;1.00
816;DHT22;25928;51.062;13.752;2023-05-23T08:40:26;22.50;1.00
816;DHT22;25928;51.062;13.752;2023-05-23T08:42:54;22.30;1.00
816;DHT22;25928;51.062;13.752;2023-05-23T08:45:19;22.20;1.00
816;DHT22;25928;51.062;13.752;2023-05-23T08:47:46;21.90;1.00
816;DHT22;25928;51.062;13.752;2023-05-23T08:50:16;22.00;1.00
816;DHT22;25928;51.062;13.752;2023-05-23T08:53:02;22.00;1.00
816;DHT22;25928;51.062;13.752;2023-05-23T08:55:28;22.00;1.00
816;DHT22;25928;51.062;13.752;2023-05-23T08:57:56;22.40;1.00
816;DHT22;25928;51.062;13.752;2023-05-23T09:00:24;22.70;1.00
816;DHT22;25928;51.062;13.752;2023-05-23T09:02:50;22.60;1.00
816;DHT22;25928;51.062;13.752;2023-05-23T09:05:17;22.30;1.00
816;DHT22;25928;51.062;13.752;2023-05-23T09:07:46;22.60;1.00
816;DHT22;25928;51.062;13.752;2023-05-23T09:10:13;22.70;99.90
816;DHT22;25928;51.062;13.752;2023-05-23T09:12:41;22.40;99.90
816;DHT22;25928;51.062;13.752;2023-05-23T09:15:08;22.30;1.00
816;DHT22;25928;51.062;13.752;2023-05-23T09:17:35;22.50;1.00
816;DHT22;25928;51.062;13.752;2023-05-23T09:20:02;22.50;1.00
816;DHT22;25928;51.062;13.752;2023-05-23T09:22:29;22.30;1.00
816;DHT22;25928;51.062;13.752;2023-05-23T09:24:55;22.10;1.00
816;DHT22;25928;51.062;13.752;2023-05-23T09:27:22;21.80;1.00
816;DHT22;25928;51.062;13.752;2023-05-23T09:29:48;21.90;1.00
816;DHT22;25928;51.062;13.752;2023-05-23T09:32:16;21.70;1.00
816;DHT22;25928;51.062;13.752;2023-05-23T09:35:03;21.40;1.00
816;DHT22;25928;51.062;13.752;2023-05-23T09:37:36;21.30;1.00
816;DHT22;25928;51.062;13.752;2023-05-23T09:40:11;21.30;1.00
816;DHT22;25928;51.062;13.752;2023-05-23T09:42:45;21.10;1.00
816;DHT22;25928;51.062;13.752;2023-05-23T09:45:14;21.10;1.00
816;DHT22;25928;51.062;13.752;2023-05-23T09:47:52;21.10;1.00
816;DHT22;25928;51.062;13.752;2023-05-23T09:50:19;21.20;1.00
816;DHT22;25928;51.062;13.752;2023-05-23T09:52:45;21.30;1.00
816;DHT22;25928;51.062;13.752;2023-05-23T09:55:11;21.40;1.00
816;DHT22;25928;51.062;13.752;2023-05-23T09:57:40;21.00;1.00
816;DHT22;25928;51.062;13.752;2023-05-23T10:00:07;22.40;1.00
816;DHT22;25928;51.062;13.752;2023-05-23T10:03:10;21.10;1.00
816;DHT22;25928;51.062;13.752;2023-05-23T10:08:19;20.80;1.00
816;DHT22;25928;51.062;13.752;2023-05-23T10:13:24;20.60;1.00
816;DHT22;25928;51.062;13.752;2023-05-23T10:16:05;20.40;1.00
816;DHT22;25928;51.062;13.752;2023-05-23T10:18:42;20.50;1.00
816;DHT22;25928;51.062;13.752;2023-05-23T10:21:11;20.80;1.00
816;DHT22;25928;51.062;13.752;2023-05-23T10:23:37;20.90;1.00
816;DHT22;25928;51.062;13.752;2023-05-23T10:26:04;21.10;1.00
816;DHT22;25928;51.062;13.752;2023-05-23T10:28:30;21.40;1.00
816;DHT22;25928;51.062;13.752;2023-05-23T10:30:57;21.50;1.00
816;DHT22;25928;51.062;13.752;2023-05-23T10:33:24;21.60;1.00
816;DHT22;25928;51.062;13.752;2023-05-23T10:36:03;22.00;99.90
816;DHT22;25928;51.062;13.752;2023-05-23T10:41:31;22.20;99.90
816;DHT22;25928;51.062;13.752;2023-05-23T10:44:24;22.00;99.90
816;DHT22;25928;51.062;13.752;2023-05-23T10:46:53;21.90;99.90
816;DHT22;25928;51.062;13.752;2023-05-23T10:52:07;21.60;99.90
816;DHT22;25928;51.062;13.752;2023-05-23T10:54:53;21.70;99.90
816;DHT22;25928;51.062;13.752;2023-05-23T10:57:22;21.70;99.90
816;DHT22;25928;51.062;13.752;2023-05-23T10:59:50;21.40;99.90
816;DHT22;25928;51.062;13.752;2023-05-23T11:02:24;21.20;99.90
816;DHT22;25928;51.062;13.752;2023-05-23T11:10:31;21.60;99.90
816;DHT22;25928;51.062;13.752;2023-05-23T11:13:05;21.80;99.90
816;DHT22;25928;51.062;13.752;2023-05-23T11:15:41;22.00;99.90
816;DHT22;25928;51.062;13.752;2023-05-23T11:18:09;21.80;99.90
816;DHT22;25928;51.062;13.752;2023-05-23T11:20:36;21.80;99.90
816;DHT22;25928;51.062;13.752;2023-05-23T11:23:06;21.60;99.90
816;DHT22;25928;51.062;13.752;2023-05-23T11:25:49;21.50;99.90
816;DHT22;25928;51.062;13.752;2023-05-23T11:28:15;21.50;99.90
816;DHT22;25928;51.062;13.752;2023-05-23T11:30:42;21.60;99.90
816;DHT22;25928;51.062;13.752;2023-05-23T11:33:12;21.80;99.90
816;DHT22;25928;51.062;13.752;2023-05-23T11:35:42;22.00;99.90
816;DHT22;25928;51.062;13.752;2023-05-23T11:38:08;22.30;99.90
816;DHT22;25928;51.062;13.752;2023-05-23T11:40:35;22.40;99.90
816;DHT22;25928;51.062;13.752;2023-05-23T11:43:06;22.10;99.90
816;DHT22;25928;51.062;13.752;2023-05-23T11:45:33;21.70;99.90
816;DHT22;25928;51.062;13.752;2023-05-23T11:48:14;21.80;99.90
816;DHT22;25928;51.062;13.752;2023-05-23T11:50:47;22.10;99.90
816;DHT22;25928;51.062;13.752;2023-05-23T11:53:13;22.00;99.90
816;DHT22;25928;51.062;13.752;2023-05-23T11:55:55;22.30;99.90
816;DHT22;25928;51.062;13.752;2023-05-23T11:58:27;22.50;99.90
816;DHT22;25928;51.062;13.752;2023-05-23T12:01:07;22.40;99.90
816;DHT22;25928;51.062;13.752;2023-05-23T12:03:33;22.10;99.90
816;DHT22;25928;51.062;13.752;2023-05-23T12:05:59;22.00;99.90
816;DHT22;25928;51.062;13.752;2023-05-23T12:08:26;22.10;99.90
816;DHT22;25928;51.062;13.752;2023-05-23T12:10:55;22.10;99.90
816;DHT22;25928;51.062;13.752;2023-05-23T12:13:23;22.00;99.90
816;DHT22;25928;51.062;13.752;2023-05-23T12:15:53;22.10;99.90
816;DHT22;25928;51.062;13.752;2023-05-23T12:18:19;22.30;99.90
816;DHT22;25928;51.062;13.752;2023-05-23T12:20:48;22.40;99.90
816;DHT22;25928;51.062;13.752;2023-05-23T12:23:21;22.40;99.90
816;DHT22;25928;51.062;13.752;2023-05-23T12:25:57;22.70;99.90
816;DHT22;25928;51.062;13.752;2023-05-23T12:28:39;22.70;99.90
816;DHT22;25928;51.062;13.752;2023-05-23T12:31:18;22.90;99.90
816;DHT22;25928;51.062;13.752;2023-05-23T12:33:47;23.00;99.90
816;DHT22;25928;51.062;13.752;2023-05-23T12:36:13;23.10;99.90
816;DHT22;25928;51.062;13.752;2023-05-23T12:38:41;23.00;99.90
816;DHT22;25928;51.062;13.752;2023-05-23T12:41:11;22.40;99.90
816;DHT22;25928;51.062;13.752;2023-05-23T12:43:40;21.70;99.90
816;DHT22;25928;51.062;13.752;2023-05-23T12:46:13;21.20;99.90
816;DHT22;25928;51.062;13.752;2023-05-23T12:48:39;20.80;99.90
816;DHT22;25928;51.062;13.752;2023-05-23T12:51:05;20.80;1.00
816;DHT22;25928;51.062;13.752;2023-05-23T12:53:31;20.80;1.00
816;DHT22;25928;51.062;13.752;2023-05-23T12:55:56;20.70;1.00
816;DHT22;25928;51.062;13.752;2023-05-23T12:58:22;20.60;99.90
816;DHT22;25928;51.062;13.752;2023-05-23T13:00:48;20.60;99.90
816;DHT22;25928;51.062;13.752;2023-05-23T13:03:14;20.60;99.90
816;DHT22;25928;51.062;13.752;2023-05-23T13:05:39;20.60;99.90
816;DHT22;25928;51.062;13.752;2023-05-23T13:08:05;20.50;99.90
816;DHT22;25928;51.062;13.752;2023-05-23T13:10:31;20.20;99.90
816;DHT22;25928;51.062;13.752;2023-05-23T13:12:57;19.90;99.90
816;DHT22;25928;51.062;13.752;2023-05-23T13:15:22;19.80;1.00
816;DHT22;25928;51.062;13.752;2023-05-23T13:17:48;19.80;1.00
816;DHT22;25928;51.062;13.752;2023-05-23T13:20:14;19.80;1.00
816;DHT22;25928;51.062;13.752;2023-05-23T13:22:39;19.80;1.00
816;DHT22;25928;51.062;13.752;2023-05-23T13:25:06;19.70;1.00
816;DHT22;25928;51.062;13.752;2023-05-23T13:27:33;19.60;1.00
816;DHT22;25928;51.062;13.752;2023-05-23T13:29:59;19.50;1.00
816;DHT22;25928;51.062;13.752;2023-05-23T13:32:25;19.60;1.00
816;DHT22;25928;51.062;13.752;2023-05-23T13:34:51;19.70;1.00
816;DHT22;25928;51.062;13.752;2023-05-23T13:37:17;19.80;1.00
816;DHT22;25928;51.062;13.752;2023-05-23T13:39:43;19.80;1.00
816;DHT22;25928;51.062;13.752;2023-05-23T13:42:08;19.60;1.00
816;DHT22;25928;51.062;13.752;2023-05-23T13:44:34;19.50;1.00
816;DHT22;25928;51.062;13.752;2023-05-23T13:47:10;19.50;1.00
816;DHT22;25928;51.062;13.752;2023-05-23T13:49:36;19.40;1.00
816;DHT22;25928;51.062;13.752;2023-05-23T13:52:02;19.40;1.00
816;DHT22;25928;51.062;13.752;2023-05-23T13:54:27;19.20;1.00
816;DHT22;25928;51.062;13.752;2023-05-23T13:56:53;19.30;1.00
816;DHT22;25928;51.062;13.752;2023-05-23T13:59:18;19.30;1.00
816;DHT22;25928;51.062;13.752;2023-05-23T14:01:46;19.20;1.00
816;DHT22;25928;51.062;13.752;2023-05-23T14:04:11;19.20;1.00
816;DHT22;25928;51.062;13.752;2023-05-23T14:06:37;19.10;1.00
816;DHT22;25928;51.062;13.752;2023-05-23T14:09:03;19.10;1.00
816;DHT22;25928;51.062;13.752;2023-05-23T14:11:29;19.20;1.00
816;DHT22;25928;51.062;13.752;2023-05-23T14:13:55;19.30;1.00
816;DHT22;25928;51.062;13.752;2023-05-23T14:16:21;19.50;1.00
816;DHT22;25928;51.062;13.752;2023-05-23T14:18:46;19.40;1.00
816;DHT22;25928;51.062;13.752;2023-05-23T14:21:12;19.30;1.00
816;DHT22;25928;51.062;13.752;2023-05-23T14:23:37;19.30;1.00
816;DHT22;25928;51.062;13.752;2023-05-23T14:26:03;19.40;1.00
816;DHT22;25928;51.062;13.752;2023-05-23T14:28:29;19.40;1.00
816;DHT22;25928;51.062;13.752;2023-05-23T14:30:55;19.40;1.00
816;DHT22;25928;51.062;13.752;2023-05-23T14:33:21;19.50;1.00
816;DHT22;25928;51.062;13.752;2023-05-23T14:35:47;19.50;1.00
816;DHT22;25928;51.062;13.752;2023-05-23T14:38:13;19.40;1.00
816;DHT22;25928;51.062;13.752;2023-05-23T14:40:39;19.30;1.00
816;DHT22;25928;51.062;13.752;2023-05-23T14:43:04;19.10;1.00
816;DHT22;25928;51.062;13.752;2023-05-23T14:45:30;19.00;1.00
816;DHT22;25928;51.062;13.752;2023-05-23T14:47:56;19.00;1.00
816;DHT22;25928;51.062;13.752;2023-05-23T14:50:21;18.90;1.00
816;DHT22;25928;51.062;13.752;2023-05-23T14:52:47;18.80;1.00
816;DHT22;25928;51.062;13.752;2023-05-23T14:55:12;18.70;1.00
816;DHT22;25928;51.062;13.752;2023-05-23T14:57:38;18.70;1.00
816;DHT22;25928;51.062;13.752;2023-05-23T15:00:06;18.80;1.00
816;DHT22;25928;51.062;13.752;2023-05-23T15:02:32;19.20;1.00
816;DHT22;25928;51.062;13.752;2023-05-23T15:04:57;19.30;1.00
816;DHT22;25928;51.062;13.752;2023-05-23T15:07:23;19.20;1.00
816;DHT22;25928;51.062;13.752;2023-05-23T15:09:49;19.20;1.00
816;DHT22;25928;51.062;13.752;2023-05-23T15:12:14;18.90;1.00
816;DHT22;25928;51.062;13.752;2023-05-23T15:14:41;18.90;1.00
816;DHT22;25928;51.062;13.752;2023-05-23T15:17:08;18.70;1.00
816;DHT22;25928;51.062;13.752;2023-05-23T15:19:35;18.50;1.00
816;DHT22;25928;51.062;13.752;2023-05-23T15:22:02;18.40;1.00
816;DHT22;25928;51.062;13.752;2023-05-23T15:24:28;18.30;1.00
816;DHT22;25928;51.062;13.752;2023-05-23T15:26:53;18.50;1.00
816;DHT22;25928;51.062;13.752;2023-05-23T15:29:19;18.50;1.00
816;DHT22;25928;51.062;13.752;2023-05-23T15:31:45;18.50;1.00
816;DHT22;25928;51.062;13.752;2023-05-23T15:34:11;18.40;1.00
816;DHT22;25928;51.062;13.752;2023-05-23T15:36:36;18.30;1.00
816;DHT22;25928;51.062;13.752;2023-05-23T15:39:04;18.20;1.00
816;DHT22;25928;51.062;13.752;2023-05-23T15:41:30;18.20;1.00
816;DHT22;25928;51.062;13.752;2023-05-23T15:43:56;18.20;1.00
816;DHT22;25928;51.062;13.752;2023-05-23T15:46:21;18.10;1.00
816;DHT22;25928;51.062;13.752;2023-05-23T15:48:47;18.10;1.00
816;DHT22;25928;51.062;13.752;2023-05-23T15:51:13;18.00;1.00
816;DHT22;25928;51.062;13.752;2023-05-23T15:53:38;18.00;1.00
816;DHT22;25928;51.062;13.752;2023-05-23T15:56:04;18.10;1.00
816;DHT22;25928;51.062;13.752;2023-05-23T15:58:30;18.10;1.00
816;DHT22;25928;51.062;13.752;2023-05-23T16:00:56;19.00;1.00
816;DHT22;25928;51.062;13.752;2023-05-23T16:03:22;17.90;1.00
816;DHT22;25928;51.062;13.752;2023-05-23T16:05:48;17.70;1.00
816;DHT22;25928;51.062;13.752;2023-05-23T16:08:13;17.60;1.00
816;DHT22;25928;51.062;13.752;2023-05-23T16:10:39;17.50;1.00
816;DHT22;25928;51.062;13.752;2023-05-23T16:13:04;17.20;1.00
816;DHT22;25928;51.062;13.752;2023-05-23T16:15:31;17.10;1.00
816;DHT22;25928;51.062;13.752;2023-05-23T16:17:57;17.00;1.00
816;DHT22;25928;51.062;13.752;2023-05-23T16:20:23;16.90;1.00
816;DHT22;25928;51.062;13.752;2023-05-23T16:22:48;16.80;1.00